Jardim De Angicos, Brazil
Current Conditions -  °F | °C
As of 6:00 AM on Sunday 23 Nov 2014 (Local Time) from SBNT Reporting Station
Broken Clouds Broken Clouds  
Wind Chill: 25°   Ceiling: 2100
Heat Index: 26°   Visibility: 6mi
Dew Point: 21°   Wind: 6mph
Humidity: 78%   Direction: 170°S
Pressure: 29.91"   Gusts: NA
Location:  5.65°S, 35.98°W
Report Text: SBNT 230900Z 17005KT 9999 BKN021 25/21 Q1013
Loading
Personal Weather Stations






























Interactive Weather Map New forecast layout! Learn more

10-Day Weather Forecast

Advertisements
Track Severe Weather on mobile